Time;durP1;ratioP1;P1;durP2;ratioP2;P2;SDS_P1;SDS_P2;PMS_P1;PMS_P2;Temp;Humidity;BMP_temperature;BMP_pressure;BME280_temperature;BME280_humidity;BME280_pressure;Samples;Min_cycle;Max_cycle;Signal;HPM_P1;HPM_P2
2024/01/13 00:00:13;;;;;;;6.15;2.33;;;;;;;;;;5083592;28;20164;-73
2024/01/13 00:02:39;;;;;;;4.88;2.53;;;;;;;;;;5081598;28;20036;-72
2024/01/13 00:05:05;;;;;;;6.97;2.88;;;;;;;;;;5086234;28;20523;-73
2024/01/13 00:07:31;;;;;;;6.85;2.60;;;;;;;;;;5088609;28;20164;-73
2024/01/13 00:09:57;;;;;;;4.25;2.45;;;;;;;;;;5087013;28;20712;-72
2024/01/13 00:12:23;;;;;;;3.90;2.38;;;;;;;;;;5084789;28;20142;-72
2024/01/13 00:14:51;;;;;;;6.40;2.75;;;;;;;;;;5084634;28;20717;-73
2024/01/13 00:17:17;;;;;;;5.38;2.35;;;;;;;;;;5075580;28;20086;-72
2024/01/13 00:19:43;;;;;;;5.03;2.42;;;;;;;;;;5087084;28;20104;-72
2024/01/13 00:22:09;;;;;;;5.07;3.47;;;;;;;;;;5080156;28;20040;-72
2024/01/13 00:24:35;;;;;;;4.40;2.75;;;;;;;;;;5081168;28;20113;-73
2024/01/13 00:27:01;;;;;;;3.63;2.47;;;;;;;;;;5081200;28;20447;-73
2024/01/13 00:29:27;;;;;;;4.57;2.35;;;;;;;;;;5083438;28;20055;-72
2024/01/13 00:31:53;;;;;;;2.55;2.22;;;;;;;;;;5084663;28;20089;-72
2024/01/13 00:34:19;;;;;;;3.03;2.45;;;;;;;;;;5085742;28;20100;-73
2024/01/13 00:36:45;;;;;;;3.28;2.50;;;;;;;;;;5065612;28;20065;-73
2024/01/13 00:39:11;;;;;;;4.18;2.70;;;;;;;;;;5085669;28;20072;-72
2024/01/13 00:41:37;;;;;;;2.97;2.20;;;;;;;;;;5081953;28;20046;-72
2024/01/13 00:44:03;;;;;;;2.67;1.95;;;;;;;;;;5082650;28;20040;-72
2024/01/13 00:46:29;;;;;;;5.30;2.20;;;;;;;;;;5080388;28;20048;-73
2024/01/13 00:48:55;;;;;;;3.03;2.25;;;;;;;;;;5081863;28;20044;-73
2024/01/13 00:51:21;;;;;;;3.25;2.17;;;;;;;;;;5080877;28;20413;-72
2024/01/13 00:53:47;;;;;;;8.20;2.30;;;;;;;;;;5080727;28;20044;-72
2024/01/13 00:56:13;;;;;;;2.33;2.10;;;;;;;;;;5081962;28;20047;-73
2024/01/13 00:58:39;;;;;;;3.35;2.00;;;;;;;;;;5085907;28;20047;-73
2024/01/13 01:01:05;;;;;;;5.47;2.55;;;;;;;;;;5085778;28;20081;-73
2024/01/13 01:03:31;;;;;;;3.88;2.50;;;;;;;;;;5089576;28;20073;-72
2024/01/13 01:06:00;;;;;;;3.90;2.33;;;;;;;;;;5086994;28;20051;-73
2024/01/13 01:08:26;;;;;;;4.78;2.40;;;;;;;;;;5090585;28;20401;-73
2024/01/13 01:10:53;;;;;;;3.90;2.55;;;;;;;;;;5086694;28;20040;-73
2024/01/13 01:13:19;;;;;;;7.20;2.78;;;;;;;;;;5090476;28;20048;-73
2024/01/13 01:15:45;;;;;;;7.88;3.17;;;;;;;;;;5083904;28;20075;-73
2024/01/13 01:18:11;;;;;;;4.75;2.75;;;;;;;;;;5083795;28;20055;-73
2024/01/13 01:20:37;;;;;;;10.65;3.25;;;;;;;;;;5086588;28;20047;-73
2024/01/13 01:23:03;;;;;;;8.90;3.33;;;;;;;;;;5084466;28;20068;-73
2024/01/13 01:25:29;;;;;;;5.03;2.85;;;;;;;;;;5087674;28;20097;-73
2024/01/13 01:27:55;;;;;;;9.10;3.58;;;;;;;;;;5086925;28;20047;-73
2024/01/13 01:30:21;;;;;;;5.68;2.75;;;;;;;;;;5088390;28;20044;-73
2024/01/13 01:32:49;;;;;;;5.82;3.13;;;;;;;;;;5086862;28;20800;-73
2024/01/13 01:35:15;;;;;;;7.20;3.35;;;;;;;;;;5085199;28;20664;-73
2024/01/13 01:37:41;;;;;;;4.45;3.00;;;;;;;;;;5095292;28;20080;-73
2024/01/13 01:40:07;;;;;;;4.95;3.10;;;;;;;;;;5064172;28;20186;-73
2024/01/13 01:42:33;;;;;;;5.00;3.10;;;;;;;;;;5085172;28;20044;-72
2024/01/13 01:44:59;;;;;;;5.55;3.58;;;;;;;;;;5084578;28;20848;-72
2024/01/13 01:47:26;;;;;;;4.38;3.40;;;;;;;;;;5069305;28;20047;-72
2024/01/13 01:49:52;;;;;;;7.70;3.47;;;;;;;;;;5083695;28;20044;-73
2024/01/13 01:52:18;;;;;;;5.25;3.40;;;;;;;;;;5083636;28;20086;-72
2024/01/13 01:54:44;;;;;;;4.60;3.38;;;;;;;;;;5084120;28;20059;-72
2024/01/13 01:57:15;;;;;;;5.35;3.42;;;;;;;;;;5095461;28;20487;-73
2024/01/13 01:59:41;;;;;;;3.90;3.40;;;;;;;;;;5087454;28;20513;-72
2024/01/13 02:02:08;;;;;;;5.00;3.60;;;;;;;;;;5084461;28;20093;-73
2024/01/13 02:04:34;;;;;;;5.88;3.58;;;;;;;;;;5088798;28;20047;-72
2024/01/13 02:07:01;;;;;;;6.90;3.65;;;;;;;;;;5087764;28;20150;-72
2024/01/13 02:09:27;;;;;;;5.80;3.97;;;;;;;;;;5087476;28;20116;-72
2024/01/13 02:11:53;;;;;;;6.05;3.60;;;;;;;;;;5084027;28;20096;-72
2024/01/13 02:14:19;;;;;;;7.47;3.53;;;;;;;;;;5083681;28;20060;-73
2024/01/13 02:16:45;;;;;;;5.78;4.20;;;;;;;;;;5084670;28;20083;-72
2024/01/13 02:19:11;;;;;;;7.90;3.83;;;;;;;;;;5086385;28;20135;-72
2024/01/13 02:21:38;;;;;;;7.15;3.55;;;;;;;;;;5084399;28;20386;-72
2024/01/13 02:24:04;;;;;;;6.03;3.85;;;;;;;;;;5086224;28;20301;-72
2024/01/13 02:26:33;;;;;;;6.88;4.25;;;;;;;;;;5076329;28;20838;-73
2024/01/13 02:28:59;;;;;;;4.80;3.97;;;;;;;;;;5082640;28;20048;-73
2024/01/13 02:31:25;;;;;;;8.02;4.30;;;;;;;;;;5083133;28;20048;-73
2024/01/13 02:33:51;;;;;;;7.68;4.93;;;;;;;;;;5068287;28;20117;-72
2024/01/13 02:36:17;;;;;;;8.75;4.18;;;;;;;;;;5088067;28;20046;-73
2024/01/13 02:38:43;;;;;;;7.68;5.38;;;;;;;;;;5084587;28;20162;-73
2024/01/13 02:41:09;;;;;;;8.65;5.10;;;;;;;;;;5085497;28;20052;-72
2024/01/13 02:43:36;;;;;;;7.75;4.05;;;;;;;;;;5086052;28;20093;-72
2024/01/13 02:46:02;;;;;;;5.00;3.63;;;;;;;;;;5084340;28;20066;-72
2024/01/13 02:48:30;;;;;;;7.40;3.40;;;;;;;;;;5086300;28;20040;-73
2024/01/13 02:50:58;;;;;;;6.90;3.92;;;;;;;;;;5089258;28;20143;-73
2024/01/13 02:53:24;;;;;;;7.22;3.25;;;;;;;;;;5093536;28;20130;-73
2024/01/13 02:55:50;;;;;;;5.63;3.55;;;;;;;;;;5085623;28;20123;-73
2024/01/13 02:58:16;;;;;;;7.22;4.35;;;;;;;;;;5082842;28;20070;-73
2024/01/13 03:00:42;;;;;;;7.45;3.55;;;;;;;;;;5086203;28;20099;-73
2024/01/13 03:03:08;;;;;;;6.28;3.30;;;;;;;;;;5082434;28;20505;-72
2024/01/13 03:05:34;;;;;;;6.25;3.20;;;;;;;;;;5084085;28;20042;-73
2024/01/13 03:08:00;;;;;;;6.53;3.00;;;;;;;;;;5084285;28;20040;-72
2024/01/13 03:10:27;;;;;;;7.05;3.25;;;;;;;;;;5084727;28;20056;-73
2024/01/13 03:12:53;;;;;;;9.32;3.17;;;;;;;;;;5090563;28;20055;-73
2024/01/13 03:15:19;;;;;;;8.20;3.17;;;;;;;;;;5082998;28;20860;-72
2024/01/13 03:17:45;;;;;;;3.67;2.80;;;;;;;;;;5089173;28;20497;-72
2024/01/13 03:20:11;;;;;;;8.52;2.67;;;;;;;;;;5087080;28;20047;-72
2024/01/13 03:22:38;;;;;;;5.50;3.10;;;;;;;;;;5090439;28;20043;-72
2024/01/13 03:25:03;;;;;;;6.47;2.90;;;4.10;99.90;;;;;;5084636;28;20076;-72
2024/01/13 03:27:29;;;;;;;4.22;2.97;;;;;;;;;;5085901;28;20178;-73
2024/01/13 03:29:55;;;;;;;4.82;2.90;;;;;;;;;;5082104;28;20775;-73
2024/01/13 03:32:21;;;;;;;6.78;2.85;;;;;;;;;;5082695;28;20047;-72
2024/01/13 03:34:47;;;;;;;5.78;2.92;;;;;;;;;;5080841;28;20035;-72
2024/01/13 03:37:14;;;;;;;6.13;2.85;;;;;;;;;;5088314;28;20083;-72
2024/01/13 03:39:40;;;;;;;8.10;3.50;;;;;;;;;;5090417;28;20493;-73
2024/01/13 03:42:06;;;;;;;7.38;2.97;;;;;;;;;;5086543;28;20065;-72
2024/01/13 03:44:32;;;;;;;13.70;3.63;;;;;;;;;;5085216;28;20047;-72
2024/01/13 03:46:58;;;;;;;6.82;3.22;;;;;;;;;;5087476;28;20039;-72
2024/01/13 03:49:24;;;;;;;5.57;3.22;;;;;;;;;;5081931;28;20046;-73
2024/01/13 03:51:50;;;;;;;8.52;2.97;;;;;;;;;;5082581;28;20551;-72
2024/01/13 03:54:16;;;;;;;7.95;3.13;;;;;;;;;;5081514;28;20090;-73
2024/01/13 03:56:42;;;;;;;8.25;2.78;;;;;;;;;;5081695;28;20769;-73
2024/01/13 03:59:11;;;;;;;6.30;3.70;;;4.10;99.90;;;;;;5083067;28;20561;-72
2024/01/13 04:01:37;;;;;;;12.95;3.97;;;;;;;;;;5078904;28;20039;-72
2024/01/13 04:04:03;;;;;;;10.30;3.53;;;;;;;;;;5081272;28;20047;-72
2024/01/13 04:06:29;;;;;;;6.65;3.17;;;;;;;;;;5081656;28;20062;-73
2024/01/13 04:08:55;;;;;;;6.57;3.85;;;;;;;;;;5064509;28;20564;-72
2024/01/13 04:11:21;;;;;;;10.85;3.30;;;;;;;;;;5081320;28;20055;-73
2024/01/13 04:13:47;;;;;;;6.18;3.58;;;;;;;;;;5081256;28;20048;-73
2024/01/13 04:16:13;;;;;;;6.53;3.38;;;;;;;;;;5083381;28;20076;-73
2024/01/13 04:18:39;;;;;;;6.85;3.50;;;;;;;;;;5082612;28;20051;-73
2024/01/13 04:21:06;;;;;;;7.35;3.95;;;;;;;;;;5081901;28;20040;-73
2024/01/13 04:23:32;;;;;;;5.90;3.65;;;;;;;;;;5080830;28;20067;-73
2024/01/13 04:25:58;;;;;;;9.93;3.60;;;;;;;;;;5081572;28;20489;-73
2024/01/13 04:28:24;;;;;;;13.02;3.75;;;;;;;;;;5081757;28;20063;-73
2024/01/13 04:30:50;;;;;;;5.32;3.60;;;;;;;;;;5080835;28;20090;-73
2024/01/13 04:33:16;;;;;;;8.05;3.35;;;;;;;;;;5081221;28;20048;-73
2024/01/13 04:35:42;;;;;;;9.55;5.45;;;;;;;;;;5082949;28;20533;-73
2024/01/13 04:38:08;;;;;;;6.07;2.70;;;;;;;;;;5086458;28;20417;-73
2024/01/13 04:40:36;;;;;;;5.93;2.70;;;;;;;;;;5085293;28;20278;-73
2024/01/13 04:43:03;;;;;;;9.43;3.42;;;;;;;;;;5084815;28;20173;-73
2024/01/13 04:45:29;;;;;;;6.43;3.15;;;;;;;;;;5084869;28;20249;-73
2024/01/13 04:47:55;;;;;;;4.13;2.35;;;;;;;;;;5085190;28;20472;-73
2024/01/13 04:50:21;;;;;;;7.22;3.03;;;;;;;;;;5084543;28;20146;-73
2024/01/13 04:52:47;;;;;;;5.80;2.88;;;;;;;;;;5084855;28;20048;-73
2024/01/13 04:55:13;;;;;;;5.97;2.88;;;;;;;;;;5084665;28;20036;-73
2024/01/13 04:57:39;;;;;;;6.45;2.50;;;;;;;;;;5086459;28;20994;-73
2024/01/13 05:00:05;;;;;;;4.15;2.30;;;;;;;;;;5084020;28;20055;-73
2024/01/13 05:02:31;;;;;;;3.53;2.67;;;;;;;;;;5084757;28;20040;-73
2024/01/13 05:04:58;;;;;;;6.00;2.42;;;;;;;;;;5085347;28;20157;-73
2024/01/13 05:07:24;;;;;;;4.00;2.50;;;;;;;;;;5084679;28;20070;-73
2024/01/13 05:09:50;;;;;;;3.88;2.33;;;;;;;;;;5084953;28;20056;-73
2024/01/13 05:12:16;;;;;;;3.20;2.00;;;;;;;;;;5084479;28;20051;-73
2024/01/13 05:14:42;;;;;;;4.78;2.17;;;;;;;;;;5083913;28;20641;-73
2024/01/13 05:17:09;;;;;;;8.07;2.70;;;;;;;;;;5085998;28;20059;-72
2024/01/13 05:19:35;;;;;;;2.65;1.75;;;;;;;;;;5084948;28;20044;-73
2024/01/13 05:22:01;;;;;;;3.33;2.28;;;;;;;;;;5084230;28;20040;-73
2024/01/13 05:24:27;;;;;;;3.75;2.10;;;;;;;;;;5084333;28;20032;-73
2024/01/13 05:26:54;;;;;;;2.78;2.22;;;;;;;;;;5084030;28;20044;-73
2024/01/13 05:29:20;;;;;;;3.72;2.47;;;;;;;;;;5084108;28;20055;-73
2024/01/13 05:31:47;;;;;;;5.20;1.80;;;;;;;;;;5084124;28;20060;-72
2024/01/13 05:34:13;;;;;;;3.35;1.98;;;;;;;;;;5083711;28;20044;-73
2024/01/13 05:36:39;;;;;;;4.35;2.17;;;;;;;;;;5085169;28;20040;-73
2024/01/13 05:39:05;;;;;;;5.13;1.52;;;;;;;;;;5084087;28;20059;-73
2024/01/13 05:41:31;;;;;;;6.45;2.05;;;;;;;;;;5084087;28;20405;-73
2024/01/13 05:43:57;;;;;;;4.30;1.90;;;;;;;;;;5083648;28;20410;-73
2024/01/13 05:46:23;;;;;;;3.42;1.90;;;;;;;;;;5083949;28;20074;-72
2024/01/13 05:48:51;;;;;;;5.22;1.80;;;;;;;;;;5083509;28;20047;-73
2024/01/13 05:51:17;;;;;;;3.35;1.73;;;;;;;;;;5085253;28;20485;-73
2024/01/13 05:53:44;;;;;;;1.90;1.70;;;;;;;;;;5067019;28;20069;-73
2024/01/13 05:56:10;;;;;;;1.88;1.67;;;;;;;;;;5084821;28;20066;-73
2024/01/13 05:58:37;;;;;;;5.28;1.98;;;;;;;;;;5083021;28;20036;-72
2024/01/13 06:01:03;;;;;;;3.50;1.98;;;;;;;;;;5083536;28;20738;-73
2024/01/13 06:03:29;;;;;;;4.38;1.60;;;;;;;;;;5083126;28;20036;-72
2024/01/13 06:05:55;;;;;;;2.13;1.67;;;;;;;;;;5083308;28;20040;-72
2024/01/13 06:08:21;;;;;;;2.70;1.80;;;;;;;;;;5066193;28;20047;-72
2024/01/13 06:10:47;;;;;;;6.07;2.25;;;;;;;;;;5084663;28;20039;-73
2024/01/13 06:13:13;;;;;;;3.00;1.95;;;;;;;;;;5082865;28;20090;-73
2024/01/13 06:15:39;;;;;;;2.50;2.20;;;;;;;;;;5084186;28;20135;-72
2024/01/13 06:18:05;;;;;;;4.88;1.95;;;;;;;;;;5083114;28;20417;-72
2024/01/13 06:20:31;;;;;;;2.47;1.80;;;;;;;;;;5082503;28;20048;-72
2024/01/13 06:22:57;;;;;;;2.47;1.90;;;;;;;;;;5082828;28;20055;-73
2024/01/13 06:25:23;;;;;;;4.25;1.98;;;;;;;;;;5082532;28;20036;-72
2024/01/13 06:27:49;;;;;;;5.35;2.03;;;;;;;;;;5078952;28;20062;-73
2024/01/13 06:30:15;;;;;;;2.22;1.55;;;;;;;;;;5083972;28;20048;-73
2024/01/13 06:32:41;;;;;;;3.63;1.70;;;;;;;;;;5082441;28;20564;-72
2024/01/13 06:35:07;;;;;;;3.03;2.05;;;;;;;;;;5082893;28;20052;-73
2024/01/13 06:37:33;;;;;;;3.00;2.20;;;;;;;;;;5082543;28;20048;-73
2024/01/13 06:39:59;;;;;;;2.15;1.83;;;;;;;;;;5081745;28;20101;-72
2024/01/13 06:42:25;;;;;;;2.75;2.35;;;;;;;;;;5082100;28;20504;-72
2024/01/13 06:44:52;;;;;;;2.38;2.17;;;;;;;;;;5082057;28;20493;-72
2024/01/13 06:47:18;;;;;;;4.80;2.40;;;;;;;;;;5081950;28;20059;-73
2024/01/13 06:49:44;;;;;;;3.97;2.10;;;;;;;;;;5082397;28;20048;-73
2024/01/13 06:52:12;;;;;;;3.45;2.15;;;;;;;;;;5082189;28;20059;-72
2024/01/13 06:54:38;;;;;;;3.30;2.40;;;;;;;;;;5080751;28;20044;-73
2024/01/13 06:57:04;;;;;;;2.58;1.88;;;;;;;;;;5082254;28;20569;-73
2024/01/13 06:59:30;;;;;;;3.67;1.92;;;;;;;;;;5094707;28;20051;-73
2024/01/13 07:01:56;;;;;;;4.05;1.80;;;;;;;;;;5083199;28;20032;-73
2024/01/13 07:04:22;;;;;;;2.20;1.75;;;;;;;;;;5083078;28;20504;-73
2024/01/13 07:06:49;;;;;;;5.75;1.92;;;;;;;;;;5083143;28;20386;-72
2024/01/13 07:09:17;;;;;;;3.63;2.50;;;;;;;;;;5081557;28;20554;-73
2024/01/13 07:11:47;;;;;;;3.03;2.17;;;;;;;;;;5078672;28;20369;-73
2024/01/13 07:14:13;;;;;;;5.35;2.03;;;;;;;;;;5098034;28;20435;-73
2024/01/13 07:16:39;;;;;;;3.20;2.08;;;;;;;;;;5082656;28;20465;-73
2024/01/13 07:19:07;;;;;;;3.05;1.98;;;;;;;;;;5083206;28;20050;-73
2024/01/13 07:21:33;;;;;;;4.63;2.33;;;;;;;;;;5081334;28;20040;-73
2024/01/13 07:23:59;;;;;;;2.60;2.40;;;;;;;;;;5081511;28;20044;-73
2024/01/13 07:26:25;;;;;;;2.50;1.98;;;;;;;;;;5082786;28;20402;-73
2024/01/13 07:28:51;;;;;;;2.60;1.50;;;;;;;;;;5081509;28;20083;-73
2024/01/13 07:31:17;;;;;;;1.70;1.60;;;;;;;;;;5083136;28;20071;-73
2024/01/13 07:33:44;;;;;;;1.55;1.23;;;;;;;;;;5081115;28;20101;-73
2024/01/13 07:36:10;;;;;;;2.55;2.10;;;;;;;;;;5081505;28;20052;-73
2024/01/13 07:38:36;;;;;;;2.80;1.92;;;;;;;;;;5064428;28;20044;-73
2024/01/13 07:41:02;;;;;;;2.75;1.90;;;;;;;;;;5081146;28;20094;-73
2024/01/13 07:43:27;;;;;;;3.65;1.90;;;;;;;;;;5080663;28;20543;-73
2024/01/13 07:45:53;;;;;;;2.30;1.83;;;;;;;;;;5082482;28;20044;-73
2024/01/13 07:48:19;;;;;;;2.42;1.60;;;;;;;;;;5081415;28;20731;-73
2024/01/13 07:50:45;;;;;;;4.18;1.83;;;;;;;;;;5081005;28;20139;-73
2024/01/13 07:53:11;;;;;;;2.65;2.08;;;;;;;;;;5080675;28;20100;-73
2024/01/13 07:55:37;;;;;;;3.60;2.45;;;;;;;;;;5081130;28;20043;-73
2024/01/13 07:58:03;;;;;;;2.92;2.28;;;;;;;;;;5080973;28;20827;-73
2024/01/13 08:00:29;;;;;;;4.47;2.38;;;;;;;;;;5080728;28;20044;-73
2024/01/13 08:02:55;;;;;;;5.78;2.70;;;;;;;;;;5080361;28;20040;-73
2024/01/13 08:05:22;;;;;;;6.20;2.80;;;;;;;;;;5082402;28;20036;-71
2024/01/13 08:07:48;;;;;;;3.20;2.40;;;;;;;;;;5077305;28;20048;-71
2024/01/13 08:10:14;;;;;;;8.25;3.15;;;;;;;;;;5077220;28;20447;-70
2024/01/13 08:12:40;;;;;;;7.70;4.80;;;;;;;;;;5085086;28;20047;-70
2024/01/13 08:15:07;;;;;;;14.00;5.90;;;;;;;;;;5084119;28;20055;-70
2024/01/13 08:17:33;;;;;;;11.73;5.30;;;;;;;;;;5084660;28;20534;-69
2024/01/13 08:19:59;;;;;;;11.38;6.50;;;;;;;;;;5085787;28;20405;-69
2024/01/13 08:22:25;;;;;;;13.45;6.82;;;;;;;;;;5084873;28;20393;-69
2024/01/13 08:24:51;;;;;;;22.67;8.65;;;;;;;;;;5084106;28;20043;-69
2024/01/13 08:27:17;;;;;;;15.43;7.63;;;;;;;;;;5084355;28;20044;-69
2024/01/13 08:29:43;;;;;;;18.13;8.45;;;;;;;;;;5085934;28;20516;-69
2024/01/13 08:32:10;;;;;;;15.65;10.23;;;;;;;;;;5083909;28;20043;-70
2024/01/13 08:34:35;;;;;;;20.35;10.23;;;;;;;;;;5084878;28;20044;-71
2024/01/13 08:37:02;;;;;;;23.52;11.05;;;;;;;;;;5084605;28;20398;-70
2024/01/13 08:39:28;;;;;;;24.33;10.73;;;;;;;;;;5084627;28;20443;-71
2024/01/13 08:41:54;;;;;;;27.17;12.43;;;;;;;;;;5086249;28;20667;-71
2024/01/13 08:44:20;;;;;;;30.08;13.27;;;;;;;;;;5084425;28;20050;-70
2024/01/13 08:46:46;;;;;;;32.33;15.82;;;;;;;;;;5084364;28;20048;-70
2024/01/13 08:49:13;;;;;;;27.15;13.98;;;;;;;;;;5067327;28;20436;-70
2024/01/13 08:51:39;;;;;;;30.20;14.60;;;;;;;;;;5084259;28;20444;-71
2024/01/13 08:54:05;;;;;;;32.88;16.15;;;;;;;;;;5084140;28;20044;-71
2024/01/13 08:56:34;;;;;;;36.45;17.40;;;;;;;;;;5085748;28;20104;-70
2024/01/13 08:59:00;;;;;;;41.65;19.20;;;;;;;;;;5084673;28;20052;-70
2024/01/13 09:01:26;;;;;;;49.10;22.13;;;;;;;;;;5084380;28;20044;-70
2024/01/13 09:03:52;;;;;;;46.03;21.83;;;;;;;;;;5068098;28;20036;-71
2024/01/13 09:06:18;;;;;;;53.33;24.67;;;;;;;;;;5084112;28;20063;-71
2024/01/13 09:08:44;;;;;;;49.67;25.02;;;;;;;;;;5084772;28;20601;-70
2024/01/13 09:11:10;;;;;;;52.60;25.48;;;;;;;;;;5084409;28;20052;-70
2024/01/13 09:13:37;;;;;;;54.20;24.70;;;;;;;;;;5067628;28;20584;-70
2024/01/13 09:16:03;;;;;;;56.15;26.95;;;;;;;;;;5097504;28;20159;-70
2024/01/13 09:18:29;;;;;;;49.92;23.63;;;;;;;;;;5086079;28;20036;-70
2024/01/13 09:20:55;;;;;;;55.20;26.33;;;;;;;;;;5083858;28;20047;-69
2024/01/13 09:23:21;;;;;;;58.10;26.50;;;;;;;;;;5080198;28;20082;-69
2024/01/13 09:25:47;;;;;;;64.45;28.63;;;;;;;;;;5083708;28;20036;-69
2024/01/13 09:28:13;;;;;;;56.58;26.90;;;;;;;;;;5078127;28;20048;-69
2024/01/13 09:30:42;;;;;;;56.78;27.55;;;;;;;;;;5066974;28;20074;-69
2024/01/13 09:33:08;;;;;;;62.70;28.52;;;;;;;;;;5083575;28;20047;-68
2024/01/13 09:35:34;;;;;;;55.13;26.40;;;;;;;;;;5083130;28;20055;-69
2024/01/13 09:38:00;;;;;;;54.28;27.83;;;;;;;;;;5088269;28;20509;-68
2024/01/13 09:40:26;;;;;;;55.58;27.08;;;;;;;;;;5080372;28;20044;-67
2024/01/13 09:43:10;;;;;;;59.03;27.27;;;;;;;;;;5063414;28;20058;-67
2024/01/13 09:45:38;;;;;;;51.97;27.45;;;;;;;;;;5080875;28;20066;-68
2024/01/13 09:48:07;;;;;;;57.97;27.30;;;4.50;99.90;;;;;;5097120;28;20054;-69
2024/01/13 09:50:33;;;;;;;56.40;27.80;;;;;;;;;;5082565;28;20126;-68
2024/01/13 09:53:00;;;;;;;58.90;28.73;;;;;;;;;;5081004;28;20253;-69
2024/01/13 09:55:27;;;;;;;65.57;30.27;;;;;;;;;;5083309;28;20046;-69
2024/01/13 09:57:53;;;;;;;58.78;29.65;;;;;;;;;;5081400;28;20054;-67
2024/01/13 10:00:19;;;;;;;58.95;28.23;;;;;;;;;;5081890;28;20086;-67
2024/01/13 10:02:45;;;;;;;56.25;28.55;;;;;;;;;;5080839;28;20067;-68
2024/01/13 10:05:11;;;;;;;54.70;27.73;;;;;;;;;;5082310;28;20177;-68
2024/01/13 10:07:40;;;;;;;59.63;28.92;;;;;;;;;;5083236;28;20036;-68
2024/01/13 10:10:07;;;;;;;56.92;28.58;;;;;;;;;;5065917;28;20043;-68
2024/01/13 10:12:35;;;;;;;53.53;28.50;;;;;;;;;;5080310;28;20113;-68
2024/01/13 10:15:03;;;;;;;54.63;27.23;;;;;;;;;;5082318;28;20052;-70
2024/01/13 10:17:30;;;;;;;59.95;29.02;;;;;;;;;;5080491;28;20058;-68
2024/01/13 10:19:56;;;;;;;51.83;27.52;;;;;;;;;;5078143;28;20051;-68
2024/01/13 10:22:23;;;;;;;53.03;26.98;;;;;;;;;;5078157;28;20751;-68
2024/01/13 10:24:49;;;;;;;55.25;27.23;;;;;;;;;;5076273;28;20044;-69
2024/01/13 10:27:15;;;;;;;52.83;28.42;;;;;;;;;;5078563;28;20036;-69
2024/01/13 10:29:42;;;;;;;49.95;27.58;;;;;;;;;;5076590;28;20409;-68
2024/01/13 10:32:10;;;;;;;57.60;28.48;;;;;;;;;;5075987;28;20052;-67
2024/01/13 10:34:37;;;;;;;50.20;28.48;;;;;;;;;;5075920;28;20127;-69
2024/01/13 10:37:09;;;;;;;79.40;41.47;;;;;;;;;;5067398;28;20048;-68
2024/01/13 10:39:35;;;;;;;52.60;29.23;;;;;;;;;;5088306;28;20158;-69
2024/01/13 10:42:02;;;;;;;51.33;28.05;;;;;;;;;;5080813;28;20044;-68
2024/01/13 10:44:29;;;;;;;52.85;25.90;;;;;;;;;;5080652;28;20040;-68
2024/01/13 10:46:56;;;;;;;54.45;28.02;;;;;;;;;;5085931;28;20362;-69
2024/01/13 10:49:26;;;;;;;49.05;27.50;;;;;;;;;;5082607;28;20127;-68
2024/01/13 10:51:55;;;;;;;53.95;29.48;;;;;;;;;;5083958;28;20081;-68
2024/01/13 10:54:25;;;;;;;55.50;27.17;;;;;;;;;;5080364;28;20040;-69
2024/01/13 10:56:52;;;;;;;46.78;25.70;;;4.90;99.90;;;;;;5080591;28;20051;-69
2024/01/13 10:59:19;;;;;;;52.50;26.13;;;;;;;;;;5080129;28;20052;-69
2024/01/13 11:01:46;;;;;;;50.30;26.95;;;;;;;;;;5080084;28;20047;-67
2024/01/13 11:04:12;;;;;;;49.03;25.65;;;;;;;;;;5083616;28;20044;-68
2024/01/13 11:06:39;;;;;;;50.42;25.33;;;;;;;;;;5078189;28;20122;-68
2024/01/13 11:09:07;;;;;;;44.20;24.98;;;;;;;;;;5079599;28;20048;-69
2024/01/13 11:11:39;;;;;;;50.85;27.13;;;;;;;;;;5078793;28;20040;-69
2024/01/13 11:14:08;;;;;;;51.47;26.85;;;;;;;;;;5078835;28;20048;-69
2024/01/13 11:16:34;;;;;;;43.35;23.80;;;;;;;;;;5080912;28;20074;-69
2024/01/13 11:19:00;;;;;;;44.35;24.48;;;;;;;;;;5078814;28;20055;-71
2024/01/13 11:21:30;;;;;;;45.85;23.15;;;;;;;;;;5087328;28;20342;-70
2024/01/13 11:24:01;;;;;;;51.67;23.88;;;;;;;;;;5077730;28;20133;-70
2024/01/13 11:26:42;;;;;;;46.80;20.85;;;;;;;;;;5081911;28;20047;-69
2024/01/13 11:29:28;;;;;;;41.10;22.67;;;;;;;;;;5080960;28;20040;-70
2024/01/13 11:32:00;;;;;;;40.17;21.48;;;;;;;;;;5080526;28;20048;-69
2024/01/13 11:34:30;;;;;;;35.83;20.10;;;;;;;;;;5081036;28;20710;-70
2024/01/13 11:37:02;;;;;;;38.65;19.80;;;;;;;;;;5080844;28;20035;-70
2024/01/13 11:39:28;;;;;;;41.63;19.90;;;;;;;;;;5079963;28;20075;-69
2024/01/13 11:41:55;;;;;;;31.48;17.60;;;;;;;;;;5079181;28;20051;-69
2024/01/13 11:44:25;;;;;;;39.03;20.15;;;;;;;;;;5088370;28;20382;-70
2024/01/13 11:46:59;;;;;;;35.72;19.40;;;5.10;99.90;;;;;;5082089;28;20051;-70
2024/01/13 11:49:30;;;;;;;42.95;18.13;;;;;;;;;;5081588;28;20054;-70
2024/01/13 11:52:01;;;;;;;35.20;16.17;;;;;;;;;;5079173;28;20130;-71
2024/01/13 11:54:27;;;;;;;37.03;17.95;;;;;;;;;;5079280;28;20048;-71
2024/01/13 11:56:53;;;;;;;36.33;18.33;;;;;;;;;;5079268;28;20093;-70
2024/01/13 11:59:20;;;;;;;39.38;17.95;;;;;;;;;;5078316;28;20048;-70
2024/01/13 12:01:46;;;;;;;39.10;17.77;;;;;;;;;;5078430;28;20032;-71
2024/01/13 12:04:14;;;;;;;32.97;16.80;;;;;;;;;;5080103;28;20760;-70
2024/01/13 12:06:42;;;;;;;33.97;17.02;;;;;;;;;;5077967;28;21007;-71
2024/01/13 12:09:08;;;;;;;31.35;16.95;;;;;;;;;;5078050;28;20055;-71
2024/01/13 12:11:34;;;;;;;35.60;16.98;;;;;;;;;;5077313;28;20123;-69
2024/01/13 12:14:03;;;;;;;33.80;16.40;;;;;;;;;;5080098;28;20473;-70
2024/01/13 12:16:29;;;;;;;36.80;16.42;;;;;;;;;;5078322;28;20096;-71
2024/01/13 12:18:55;;;;;;;35.28;17.45;;;;;;;;;;5061624;28;20032;-71
2024/01/13 12:21:22;;;;;;;34.53;16.60;;;;;;;;;;5062660;28;20045;-69
2024/01/13 12:23:48;;;;;;;33.42;17.02;;;;;;;;;;5078376;28;20043;-69
2024/01/13 12:26:14;;;;;;;32.35;16.67;;;;;;;;;;5080604;28;20476;-71
2024/01/13 12:28:41;;;;;;;33.60;16.58;;;;;;;;;;5079580;28;20047;-70
2024/01/13 12:31:07;;;;;;;33.08;17.08;;;;;;;;;;5077298;28;20094;-68
2024/01/13 12:33:33;;;;;;;33.50;16.30;;;;;;;;;;5078347;28;20044;-69
2024/01/13 12:36:04;;;;;;;29.33;16.65;;;;;;;;;;5077384;28;20051;-70
2024/01/13 12:38:30;;;;;;;29.80;14.88;;;;;;;;;;5079271;28;20048;-69
2024/01/13 12:41:00;;;;;;;25.85;15.02;;;;;;;;;;5077776;28;20094;-69
2024/01/13 12:43:26;;;;;;;32.40;14.75;;;;;;;;;;5078134;28;20040;-68
2024/01/13 12:45:54;;;;;;;26.23;14.50;;;;;;;;;;5078818;28;20050;-68
2024/01/13 12:48:20;;;;;;;32.53;15.32;;;;;;;;;;5080171;28;20067;-70
2024/01/13 12:50:47;;;;;;;28.42;14.77;;;;;;;;;;5080030;28;20081;-69
2024/01/13 12:53:13;;;;;;;24.45;13.32;;;;;;;;;;5078096;28;20071;-70
2024/01/13 12:55:40;;;;;;;32.05;14.40;;;;;;;;;;5077909;28;20051;-69
2024/01/13 12:58:06;;;;;;;31.13;14.88;;;;;;;;;;5082156;28;20406;-71
2024/01/13 13:00:32;;;;;;;21.88;12.38;;;;;;;;;;5083612;28;20466;-70
2024/01/13 13:02:59;;;;;;;25.90;13.13;;;;;;;;;;5084644;28;20516;-71
2024/01/13 13:05:25;;;;;;;19.20;11.00;;;;;;;;;;5084225;28;20043;-70
2024/01/13 13:07:52;;;;;;;20.63;10.70;;;;;;;;;;5081179;28;20040;-70
2024/01/13 13:10:21;;;;;;;23.55;11.57;;;;;;;;;;5081193;28;20040;-72
2024/01/13 13:12:47;;;;;;;18.27;10.50;;;;;;;;;;5081082;28;20051;-70
2024/01/13 13:15:14;;;;;;;19.38;9.50;;;;;;;;;;5077483;28;20060;-70
2024/01/13 13:17:40;;;;;;;15.85;9.65;;;;;;;;;;5077933;28;20520;-70
2024/01/13 13:20:07;;;;;;;13.18;7.97;;;;;;;;;;5081368;28;20048;-71
2024/01/13 13:22:37;;;;;;;12.43;7.35;;;;;;;;;;5080689;28;20051;-70
2024/01/13 13:25:06;;;;;;;11.20;6.78;;;;;;;;;;5079891;28;20044;-71
2024/01/13 13:27:33;;;;;;;17.48;6.15;;;;;;;;;;5084817;28;20106;-71
2024/01/13 13:30:00;;;;;;;10.40;6.15;;;;;;;;;;5079868;28;20048;-71
2024/01/13 13:32:26;;;;;;;11.60;6.40;;;;;;;;;;5082685;28;20043;-71
2024/01/13 13:34:52;;;;;;;11.73;6.53;;;;;;;;;;5083421;28;20846;-71
2024/01/13 13:37:18;;;;;;;10.98;6.68;;;;;;;;;;5079411;28;20040;-71
2024/01/13 13:39:44;;;;;;;11.68;6.70;;;;;;;;;;5079558;28;20046;-70
2024/01/13 13:42:10;;;;;;;12.18;7.13;;;;;;;;;;5079414;28;20797;-71
2024/01/13 13:44:37;;;;;;;12.63;6.50;;;;;;;;;;5063326;28;20117;-71
2024/01/13 13:47:04;;;;;;;15.05;6.25;;;;;;;;;;5081426;28;20285;-70
2024/01/13 13:49:30;;;;;;;12.45;6.90;;;;;;;;;;5079458;28;20052;-71
2024/01/13 13:51:57;;;;;;;10.13;6.03;;;;;;;;;;5083120;28;20048;-71
2024/01/13 13:54:23;;;;;;;13.85;5.72;;;;;;;;;;5079693;28;20052;-71
2024/01/13 13:56:49;;;;;;;9.23;5.60;;;;;;;;;;5079805;28;20073;-71
2024/01/13 13:59:15;;;;;;;10.15;5.85;;;;;;;;;;5076419;28;20048;-71
2024/01/13 14:01:42;;;;;;;10.15;5.75;;;;;;;;;;5079595;28;20044;-70
2024/01/13 14:04:10;;;;;;;13.18;5.70;;;;;;;;;;5079795;28;20044;-70
2024/01/13 14:06:36;;;;;;;10.23;5.07;;;;;;;;;;5080917;28;20047;-70
2024/01/13 14:09:03;;;;;;;7.25;5.13;;;;;;;;;;5062037;28;20040;-69
2024/01/13 14:11:29;;;;;;;10.60;5.57;;;;;;;;;;5082786;28;20783;-71
2024/01/13 14:13:55;;;;;;;9.77;4.70;;;;;;;;;;5080885;28;20131;-70
2024/01/13 14:16:21;;;;;;;9.85;5.13;;;;;;;;;;5079148;28;20048;-69
2024/01/13 14:18:48;;;;;;;8.85;4.18;;;;;;;;;;5079034;28;20565;-69
2024/01/13 14:21:17;;;;;;;12.52;5.93;;;;;;;;;;5082450;28;20462;-69
2024/01/13 14:23:44;;;;;;;11.65;4.40;;;;;;;;;;5093289;28;20051;-70
2024/01/13 14:26:11;;;;;;;8.98;3.88;;;;;;;;;;5060161;28;20039;-71